createdAt,value
2018-11-03T00:02:34.617Z,8.50
2018-11-03T00:07:36.850Z,8.50
2018-11-03T00:12:39.486Z,8.50
2018-11-03T00:17:42.736Z,8.40
2018-11-03T00:22:45.317Z,8.30
2018-11-03T00:27:47.558Z,8.20
2018-11-03T00:32:49.781Z,8.10
2018-11-03T00:37:52.002Z,8.10
2018-11-03T00:42:54.294Z,8.20
2018-11-03T00:47:56.461Z,8.00
2018-11-03T00:52:58.674Z,8.00
2018-11-03T00:58:00.898Z,8.00
2018-11-03T01:03:03.143Z,8.00
2018-11-03T01:08:05.521Z,7.90
2018-11-03T01:13:07.774Z,7.80
2018-11-03T01:18:10.044Z,7.70
2018-11-03T01:23:12.300Z,7.70
2018-11-03T01:28:14.555Z,7.70
2018-11-03T01:33:16.801Z,7.30
2018-11-03T01:38:19.042Z,7.30
2018-11-03T01:43:21.292Z,7.40
2018-11-03T01:48:23.520Z,7.50
2018-11-03T01:53:25.758Z,7.60
2018-11-03T01:58:28.010Z,7.60
2018-11-03T02:03:30.241Z,7.60
2018-11-03T02:08:32.502Z,7.70
2018-11-03T02:13:34.733Z,7.70
2018-11-03T02:18:36.978Z,7.60
2018-11-03T02:23:39.193Z,7.60
2018-11-03T02:28:41.436Z,7.60
2018-11-03T02:33:43.622Z,7.60
2018-11-03T02:38:45.850Z,7.50
2018-11-03T02:43:48.071Z,7.50
2018-11-03T02:48:50.360Z,7.50
2018-11-03T02:53:52.578Z,7.50
2018-11-03T02:58:54.806Z,7.50
2018-11-03T03:03:57.030Z,7.50
2018-11-03T03:08:59.267Z,7.50
2018-11-03T03:14:01.522Z,7.50
2018-11-03T03:19:04.106Z,7.50
2018-11-03T03:24:06.434Z,7.30
2018-11-03T03:29:08.870Z,7.30
2018-11-03T03:34:11.095Z,7.20
2018-11-03T03:39:13.331Z,7.10
2018-11-03T03:44:15.578Z,7.00
2018-11-03T03:49:17.865Z,7.00
2018-11-03T03:54:20.218Z,6.90
2018-11-03T03:59:22.491Z,6.80
2018-11-03T04:04:24.745Z,6.80
2018-11-03T04:09:26.988Z,6.80
2018-11-03T04:14:29.325Z,6.80
2018-11-03T04:19:31.631Z,6.80
2018-11-03T04:24:33.861Z,6.90
2018-11-03T04:29:36.090Z,6.80
2018-11-03T04:34:38.365Z,6.80
2018-11-03T04:39:40.706Z,6.80
2018-11-03T04:44:42.973Z,6.90
2018-11-03T04:49:45.222Z,6.80
2018-11-03T04:54:47.466Z,6.80
2018-11-03T04:59:49.710Z,6.90
2018-11-03T05:04:51.951Z,6.80
2018-11-03T05:09:54.262Z,6.90
2018-11-03T05:14:56.515Z,6.90
2018-11-03T05:19:58.787Z,7.00
2018-11-03T05:25:01.039Z,7.00
2018-11-03T05:30:03.562Z,6.90
2018-11-03T05:35:05.894Z,7.00
2018-11-03T05:40:08.147Z,7.00
2018-11-03T05:45:10.406Z,7.00
2018-11-03T05:50:12.730Z,6.90
2018-11-03T05:55:14.965Z,6.80
2018-11-03T06:00:17.201Z,6.80
2018-11-03T06:05:19.445Z,6.80
2018-11-03T06:10:21.674Z,6.70
2018-11-03T06:15:23.909Z,6.60
2018-11-03T06:20:26.362Z,6.50
2018-11-03T06:25:28.598Z,6.50
2018-11-03T06:30:30.926Z,6.30
2018-11-03T06:35:33.182Z,6.30
2018-11-03T06:40:35.410Z,6.30
2018-11-03T06:45:37.636Z,6.30
2018-11-03T06:50:40.103Z,6.30
2018-11-03T06:55:42.346Z,6.30
2018-11-03T07:00:44.667Z,6.40
2018-11-03T07:05:46.887Z,6.70
2018-11-03T07:10:49.217Z,7.20
2018-11-03T07:15:51.466Z,7.70
2018-11-03T07:20:53.775Z,8.20
2018-11-03T07:25:56.044Z,8.60
2018-11-03T07:30:58.271Z,9.20
2018-11-03T07:36:00.489Z,9.30
2018-11-03T07:41:02.951Z,9.80
2018-11-03T07:46:05.238Z,10.10
2018-11-03T07:51:07.522Z,10.70
2018-11-03T07:56:09.775Z,10.90
2018-11-03T08:01:12.036Z,11.20
2018-11-03T08:06:14.414Z,11.90
2018-11-03T08:11:16.682Z,12.00
2018-11-03T08:16:18.893Z,12.10
2018-11-03T08:21:21.146Z,12.30
2018-11-03T08:26:23.405Z,12.40
2018-11-03T08:31:25.718Z,12.10
2018-11-03T08:36:27.914Z,12.00
2018-11-03T08:41:30.166Z,12.40
2018-11-03T08:46:32.413Z,12.50
2018-11-03T08:51:34.679Z,13.20
2018-11-03T08:56:36.918Z,13.70
2018-11-03T09:01:39.164Z,13.70
2018-11-03T09:06:41.411Z,13.90
2018-11-03T09:11:43.661Z,13.80
2018-11-03T09:16:46.047Z,14.00
2018-11-03T09:21:48.376Z,14.10
2018-11-03T09:26:50.529Z,15.10
2018-11-03T09:31:52.830Z,15.60
2018-11-03T09:36:55.027Z,16.00
2018-11-03T09:41:57.263Z,15.90
2018-11-03T09:46:59.513Z,16.30
2018-11-03T09:52:02.653Z,16.20
2018-11-03T09:57:05.258Z,15.90
2018-11-03T10:02:07.509Z,15.30
2018-11-03T10:07:09.766Z,15.00
2018-11-03T10:12:12.007Z,14.30
2018-11-03T10:17:14.250Z,14.30
2018-11-03T10:22:16.585Z,13.80
2018-11-03T10:27:18.737Z,13.70
2018-11-03T10:32:20.958Z,13.40
2018-11-03T10:37:23.194Z,13.00
2018-11-03T10:42:25.637Z,13.00
2018-11-03T10:47:27.870Z,13.10
2018-11-03T10:52:30.126Z,12.80
2018-11-03T10:57:32.360Z,12.80
2018-11-03T11:02:40.387Z,12.70
2018-11-03T11:07:48.553Z,13.30
2018-11-03T11:12:51.298Z,13.10
2018-11-03T11:17:53.514Z,13.00
2018-11-03T11:22:55.760Z,13.00
2018-11-03T11:27:57.998Z,12.60
2018-11-03T11:33:00.235Z,12.80
2018-11-03T11:38:02.512Z,12.80
2018-11-03T11:43:05.255Z,12.90
2018-11-03T11:48:07.414Z,12.80
2018-11-03T11:53:09.654Z,12.50
2018-11-03T11:58:11.906Z,12.40
2018-11-03T12:03:14.138Z,12.40
2018-11-03T12:08:16.398Z,12.60
2018-11-03T12:13:18.668Z,12.90
2018-11-03T12:18:20.898Z,12.70
2018-11-03T12:23:23.129Z,12.80
2018-11-03T12:28:25.361Z,12.90
2018-11-03T12:33:27.762Z,12.90
2018-11-03T12:38:30.014Z,12.90
2018-11-03T12:43:32.262Z,13.30
2018-11-03T12:48:34.578Z,13.90
2018-11-03T12:53:36.846Z,13.80
2018-11-03T12:58:39.069Z,13.20
2018-11-03T13:03:41.716Z,13.10
2018-11-03T13:08:44.051Z,12.90
2018-11-03T13:13:46.294Z,13.00
2018-11-03T13:18:48.523Z,13.00
2018-11-03T13:23:50.782Z,13.00
2018-11-03T13:28:53.084Z,13.10
2018-11-03T13:33:55.387Z,13.20
2018-11-03T13:38:57.662Z,13.10
2018-11-03T13:43:59.937Z,13.00
2018-11-03T13:49:02.275Z,12.90
2018-11-03T13:54:04.562Z,12.90
2018-11-03T13:59:06.779Z,12.90
2018-11-03T14:04:09.020Z,13.00
2018-11-03T14:09:11.230Z,12.80
2018-11-03T14:14:13.454Z,12.80
2018-11-03T14:19:15.687Z,12.80
2018-11-03T14:24:17.994Z,12.90
2018-11-03T14:29:20.311Z,12.90
2018-11-03T14:34:22.461Z,12.90
2018-11-03T14:39:24.714Z,12.90
2018-11-03T14:44:26.981Z,12.80
2018-11-03T14:49:29.208Z,12.80
2018-11-03T14:54:31.478Z,12.80
2018-11-03T14:59:33.746Z,12.70
2018-11-03T15:04:35.982Z,12.70
2018-11-03T15:09:38.253Z,13.30
2018-11-03T15:14:40.593Z,12.80
2018-11-03T15:19:42.790Z,12.70
2018-11-03T15:24:45.084Z,12.50
2018-11-03T15:29:47.323Z,12.40
2018-11-03T15:34:49.601Z,12.40
2018-11-03T15:39:51.808Z,12.30
2018-11-03T15:44:54.058Z,12.20
2018-11-03T15:49:56.322Z,12.00
2018-11-03T15:54:58.628Z,12.00
2018-11-03T16:00:00.934Z,11.80
2018-11-03T16:05:03.230Z,11.70
2018-11-03T16:10:06.506Z,12.50
2018-11-03T16:15:09.926Z,12.00
2018-11-03T16:20:12.776Z,11.60
2018-11-03T16:25:15.149Z,11.40
2018-11-03T16:30:17.506Z,11.30
2018-11-03T16:35:19.816Z,11.20
2018-11-03T16:40:22.041Z,11.20
2018-11-03T16:45:24.307Z,11.10
2018-11-03T16:50:26.612Z,11.10
2018-11-03T16:55:28.957Z,11.00
2018-11-03T17:00:31.134Z,10.90
2018-11-03T17:05:33.435Z,10.80
2018-11-03T17:10:35.701Z,10.70
2018-11-03T17:15:37.942Z,10.70
2018-11-03T17:20:40.213Z,10.60
2018-11-03T17:25:42.466Z,10.60
2018-11-03T17:30:44.725Z,10.60
2018-11-03T17:35:46.978Z,10.60
2018-11-03T17:40:49.273Z,10.60
2018-11-03T17:45:51.518Z,10.60
2018-11-03T17:50:53.786Z,10.60
2018-11-03T17:55:56.042Z,10.70
2018-11-03T18:00:58.312Z,10.70
2018-11-03T18:06:00.567Z,10.70
2018-11-03T18:11:02.811Z,10.80
2018-11-03T18:16:05.655Z,10.30
2018-11-03T18:21:07.931Z,10.00
2018-11-03T18:26:10.579Z,10.20
2018-11-03T18:31:12.796Z,10.30
2018-11-03T18:41:24.124Z,10.30
2018-11-03T18:46:26.331Z,10.10
2018-11-03T18:51:28.579Z,10.20
2018-11-03T18:56:30.906Z,10.20
2018-11-03T19:01:33.162Z,10.10
2018-11-03T19:06:35.447Z,10.20
2018-11-03T19:11:37.698Z,10.20
2018-11-03T19:16:39.962Z,10.00
2018-11-03T19:21:42.210Z,10.00
2018-11-03T19:26:44.542Z,9.90
2018-11-03T19:31:46.822Z,9.90
2018-11-03T19:36:49.065Z,9.90
2018-11-03T19:41:51.448Z,9.90
2018-11-03T19:46:53.559Z,9.90
2018-11-03T19:51:56.678Z,10.00
2018-11-03T19:56:58.941Z,9.90
2018-11-03T20:02:01.135Z,9.90
2018-11-03T20:07:03.482Z,9.90
2018-11-03T20:12:06.374Z,9.90
2018-11-03T20:17:08.638Z,9.90
2018-11-03T20:22:10.913Z,9.90
2018-11-03T20:27:13.230Z,10.00
2018-11-03T20:32:15.494Z,10.00
2018-11-03T20:37:17.746Z,10.00
2018-11-03T20:42:21.010Z,10.10
2018-11-03T20:47:23.262Z,10.00
2018-11-03T20:52:25.505Z,10.00
2018-11-03T20:57:27.817Z,10.00
2018-11-03T21:02:30.066Z,10.00
2018-11-03T21:07:32.341Z,9.90
2018-11-03T21:12:34.658Z,10.00
2018-11-03T21:17:36.914Z,9.90
2018-11-03T21:22:39.174Z,9.90
2018-11-03T21:27:41.478Z,10.00
2018-11-03T21:32:43.831Z,10.00
2018-11-03T21:37:46.037Z,9.90
2018-11-03T21:42:48.296Z,9.80
2018-11-03T21:47:50.557Z,9.90
2018-11-03T21:52:52.813Z,9.80
2018-11-03T21:57:55.119Z,9.90
2018-11-03T22:02:57.365Z,9.90
2018-11-03T22:07:59.626Z,9.90
2018-11-03T22:13:01.896Z,9.90
2018-11-03T22:18:04.298Z,9.90
2018-11-03T22:23:08.714Z,10.00
2018-11-03T22:28:11.055Z,9.90
2018-11-03T22:33:13.315Z,10.00
2018-11-03T22:38:15.690Z,10.00
2018-11-03T22:43:17.942Z,10.00
2018-11-03T22:48:20.210Z,10.00
2018-11-03T22:53:22.450Z,10.00
2018-11-03T22:58:24.734Z,10.00
2018-11-03T23:03:27.016Z,10.00
2018-11-03T23:08:29.255Z,10.00
2018-11-03T23:13:31.516Z,10.10
2018-11-03T23:18:33.757Z,10.10
2018-11-03T23:23:36.018Z,10.20
2018-11-03T23:28:38.293Z,10.20
2018-11-03T23:33:40.585Z,10.20
2018-11-03T23:38:42.829Z,10.20
2018-11-03T23:43:45.058Z,10.20
2018-11-03T23:48:47.310Z,10.30
2018-11-03T23:53:49.542Z,10.30
2018-11-03T23:58:52.024Z,10.40
